createdAt,value
2019-03-15T00:00:52.613Z,98830.05
2019-03-15T00:03:20.394Z,98832.09
2019-03-15T00:05:48.145Z,98842.98
2019-03-15T00:08:15.896Z,98846.58
2019-03-15T00:10:43.645Z,98852.13
2019-03-15T00:13:12.456Z,98859.16
2019-03-15T00:15:40.371Z,98863.94
2019-03-15T00:18:08.139Z,98862.90
2019-03-15T00:20:35.900Z,98855.85
2019-03-15T00:23:03.881Z,98854.27
2019-03-15T00:25:31.647Z,98861.80
2019-03-15T00:27:59.421Z,98863.06
2019-03-15T00:30:27.156Z,98868.42
2019-03-15T00:32:54.961Z,98867.44
2019-03-15T00:35:22.699Z,98881.31
2019-03-15T00:37:50.469Z,98884.15
2019-03-15T00:40:18.630Z,98878.27
2019-03-15T00:42:46.425Z,98882.77
2019-03-15T00:45:14.159Z,98882.38
2019-03-15T00:47:41.927Z,98881.19
2019-03-15T00:50:10.789Z,98881.55
2019-03-15T00:52:38.582Z,98879.58
2019-03-15T00:55:06.706Z,98888.08
2019-03-15T00:57:34.470Z,98889.00
2019-03-15T01:00:02.898Z,98892.86
2019-03-15T01:02:30.660Z,98896.87
2019-03-15T01:04:58.412Z,98903.02
2019-03-15T01:07:26.376Z,98896.44
2019-03-15T01:09:54.198Z,98903.62
2019-03-15T01:12:21.988Z,98911.97
2019-03-15T01:14:49.706Z,98921.90
2019-03-15T01:17:17.461Z,98919.61
2019-03-15T01:19:45.196Z,98914.77
2019-03-15T01:22:12.950Z,98923.95
2019-03-15T01:24:40.691Z,98922.45
2019-03-15T01:27:08.513Z,98925.16
2019-03-15T01:29:36.282Z,98935.17
2019-03-15T01:32:04.057Z,98918.97
2019-03-15T01:34:31.807Z,98924.06
2019-03-15T01:36:59.585Z,98917.64
2019-03-15T01:39:27.363Z,98921.00
2019-03-15T01:41:55.112Z,98929.34
2019-03-15T01:44:22.894Z,98928.32
2019-03-15T01:46:50.629Z,98929.32
2019-03-15T01:49:18.396Z,98926.72
2019-03-15T01:51:46.128Z,98933.42
2019-03-15T01:54:13.867Z,98930.78
2019-03-15T01:56:41.601Z,98942.13
2019-03-15T01:59:09.381Z,98948.67
2019-03-15T02:01:37.113Z,98952.33
2019-03-15T02:04:05.593Z,98952.70
2019-03-15T02:06:33.488Z,98957.12
2019-03-15T02:09:01.260Z,98953.21
2019-03-15T02:11:29.424Z,98952.89
2019-03-15T02:13:57.367Z,98959.04
2019-03-15T02:16:25.095Z,98959.13
2019-03-15T02:18:52.881Z,98959.52
2019-03-15T02:21:20.614Z,98956.45
2019-03-15T02:23:48.499Z,98957.00
2019-03-15T02:26:16.351Z,98964.17
2019-03-15T02:28:44.127Z,98964.02
2019-03-15T02:31:11.903Z,98966.58
2019-03-15T02:33:39.665Z,98967.52
2019-03-15T02:36:07.390Z,98961.85
2019-03-15T02:38:35.240Z,98959.77
2019-03-15T02:41:03.031Z,98956.45
2019-03-15T02:43:30.767Z,98958.30
2019-03-15T02:45:59.161Z,98972.67
2019-03-15T02:48:27.069Z,98977.93
2019-03-15T02:50:56.181Z,98980.72
2019-03-15T02:53:24.018Z,98984.00
2019-03-15T02:55:51.760Z,98986.31
2019-03-15T02:58:19.493Z,98988.40
2019-03-15T03:00:47.280Z,98983.06
2019-03-15T03:03:15.033Z,98988.78
2019-03-15T03:05:42.769Z,98986.08
2019-03-15T03:08:10.508Z,98992.03
2019-03-15T03:10:38.263Z,98997.16
2019-03-15T03:13:06.809Z,99005.92
2019-03-15T03:15:34.561Z,99015.91
2019-03-15T03:18:02.322Z,99021.86
2019-03-15T03:20:30.079Z,99015.78
2019-03-15T03:22:57.856Z,99017.06
2019-03-15T03:25:25.655Z,99031.06
2019-03-15T03:27:53.375Z,99027.30
2019-03-15T03:30:21.149Z,99025.64
2019-03-15T03:32:48.914Z,99023.28
2019-03-15T03:35:16.767Z,99024.95
2019-03-15T03:37:45.136Z,99022.62
2019-03-15T03:40:13.258Z,99026.16
2019-03-15T03:42:41.003Z,99031.38
2019-03-15T03:45:08.964Z,99033.47
2019-03-15T03:47:36.739Z,99031.44
2019-03-15T03:50:04.960Z,99027.84
2019-03-15T03:52:32.690Z,99025.86
2019-03-15T03:55:00.453Z,99024.57
2019-03-15T03:57:28.193Z,99036.27
2019-03-15T03:59:55.943Z,99034.63
2019-03-15T04:02:23.717Z,99041.23
2019-03-15T04:04:51.456Z,99047.75
2019-03-15T04:07:19.217Z,99054.91
2019-03-15T04:09:46.937Z,99049.27
2019-03-15T04:12:14.715Z,99052.70
2019-03-15T04:14:42.435Z,99053.84
2019-03-15T04:17:10.195Z,99065.52
2019-03-15T04:19:37.937Z,99067.61
2019-03-15T04:22:05.687Z,99068.63
2019-03-15T04:24:33.446Z,99062.22
2019-03-15T04:27:01.182Z,99063.69
2019-03-15T04:29:28.909Z,99062.98
2019-03-15T04:31:56.697Z,99062.34
2019-03-15T04:34:24.444Z,99072.68
2019-03-15T04:36:52.178Z,99073.42
2019-03-15T04:39:19.925Z,99080.77
2019-03-15T04:41:47.683Z,99080.50
2019-03-15T04:44:15.427Z,99082.17
2019-03-15T04:46:43.175Z,99089.47
2019-03-15T04:49:10.932Z,99092.02
2019-03-15T04:51:38.696Z,99099.48
2019-03-15T04:54:06.464Z,99102.75
2019-03-15T04:56:34.210Z,99106.86
2019-03-15T04:59:01.973Z,99106.69
2019-03-15T05:01:29.750Z,99108.70
2019-03-15T05:03:57.511Z,99105.73
2019-03-15T05:06:25.258Z,99116.95
2019-03-15T05:08:53.040Z,99111.77
2019-03-15T05:11:20.814Z,99113.16
2019-03-15T05:13:48.571Z,99114.20
2019-03-15T05:16:16.358Z,99115.63
2019-03-15T05:18:44.116Z,99118.95
2019-03-15T05:21:11.884Z,99121.66
2019-03-15T05:23:39.651Z,99125.21
2019-03-15T05:26:07.515Z,99127.02
2019-03-15T05:28:35.278Z,99121.94
2019-03-15T05:31:03.057Z,99119.72
2019-03-15T05:33:30.824Z,99115.44
2019-03-15T05:35:58.591Z,99125.27
2019-03-15T05:38:26.426Z,99123.34
2019-03-15T05:40:54.243Z,99127.21
2019-03-15T05:43:22.061Z,99120.74
2019-03-15T05:45:49.800Z,99119.77
2019-03-15T05:48:17.549Z,99125.88
2019-03-15T05:50:45.291Z,99125.88
2019-03-15T05:53:13.060Z,99122.45
2019-03-15T05:55:40.803Z,99129.52
2019-03-15T05:58:08.575Z,99140.78
2019-03-15T06:00:36.314Z,99133.02
2019-03-15T06:03:04.041Z,99131.45
2019-03-15T06:05:31.825Z,99144.57
2019-03-15T06:07:59.549Z,99139.27
2019-03-15T06:10:27.301Z,99144.25
2019-03-15T06:12:55.055Z,99141.43
2019-03-15T06:15:22.898Z,99152.61
2019-03-15T06:17:50.665Z,99146.85
2019-03-15T06:20:18.619Z,99147.64
2019-03-15T06:22:46.364Z,99139.59
2019-03-15T06:25:14.115Z,99152.05
2019-03-15T06:27:41.850Z,99151.49
2019-03-15T06:30:10.104Z,99151.99
2019-03-15T06:32:37.852Z,99139.33
2019-03-15T06:35:06.044Z,99146.63
2019-03-15T06:37:33.804Z,99146.67
2019-03-15T06:40:01.681Z,99150.11
2019-03-15T06:42:29.982Z,99152.06
2019-03-15T06:44:58.403Z,99152.73
2019-03-15T06:47:26.208Z,99154.97
2019-03-15T06:49:54.024Z,99155.44
2019-03-15T06:52:21.764Z,99149.01
2019-03-15T06:54:49.558Z,99160.55
2019-03-15T06:57:17.355Z,99158.59
2019-03-15T06:59:45.125Z,99154.95
2019-03-15T07:02:12.914Z,99148.70
2019-03-15T07:04:40.658Z,99149.47
2019-03-15T07:07:08.442Z,99147.42
2019-03-15T07:09:36.188Z,99139.20
2019-03-15T07:12:09.236Z,99141.89
2019-03-15T07:14:33.643Z,99139.77
2019-03-15T07:17:01.434Z,99140.78
2019-03-15T07:19:30.722Z,99149.01
2019-03-15T07:21:58.593Z,99135.08
2019-03-15T07:24:26.534Z,99128.52
2019-03-15T07:26:54.406Z,99149.16
2019-03-15T07:29:22.351Z,99146.69
2019-03-15T07:31:50.411Z,99140.98
2019-03-15T07:34:18.193Z,99130.66
2019-03-15T07:36:45.953Z,99145.44
2019-03-15T07:39:13.759Z,99134.95
2019-03-15T07:41:41.531Z,99142.59
2019-03-15T07:44:09.285Z,99129.80
2019-03-15T07:46:37.084Z,99143.19
2019-03-15T07:49:04.867Z,99140.09
2019-03-15T07:51:32.801Z,99149.89
2019-03-15T07:54:00.505Z,99143.50
2019-03-15T07:56:28.718Z,99145.45
2019-03-15T07:58:56.574Z,99136.44
2019-03-15T08:01:24.333Z,99140.28
2019-03-15T08:03:52.077Z,99145.28
2019-03-15T08:06:19.980Z,99144.19
2019-03-15T08:08:47.835Z,99139.25
2019-03-15T08:11:15.703Z,99124.61
2019-03-15T08:13:43.643Z,99128.56
2019-03-15T08:16:11.455Z,99130.58
2019-03-15T08:18:39.229Z,99130.58
2019-03-15T08:21:07.023Z,99135.77
2019-03-15T08:23:34.777Z,99138.93
2019-03-15T08:26:02.513Z,99134.75
2019-03-15T08:28:30.497Z,99135.52
2019-03-15T08:30:59.065Z,99135.31
2019-03-15T08:33:26.844Z,99136.10
2019-03-15T08:35:54.601Z,99132.63
2019-03-15T08:38:22.498Z,99142.72
2019-03-15T08:40:50.298Z,99140.08
2019-03-15T08:43:18.071Z,99148.98
2019-03-15T08:45:45.850Z,99141.70
2019-03-15T08:48:13.638Z,99146.80
2019-03-15T08:50:46.564Z,99143.78
2019-03-15T08:53:14.337Z,99141.88
2019-03-15T08:55:42.122Z,99145.55
2019-03-15T08:58:14.544Z,99142.18
2019-03-15T09:00:40.052Z,99149.00
2019-03-15T09:03:08.051Z,99140.70
2019-03-15T09:05:35.842Z,99150.02
2019-03-15T09:08:03.620Z,99143.34
2019-03-15T09:10:31.406Z,99138.17
2019-03-15T09:12:59.284Z,99149.66
2019-03-15T09:15:27.072Z,99150.35
2019-03-15T09:17:54.832Z,99156.13
2019-03-15T09:20:22.612Z,99155.61
2019-03-15T09:22:50.440Z,99157.17
2019-03-15T09:25:20.232Z,99147.19
2019-03-15T09:27:48.070Z,99135.66
2019-03-15T09:30:23.272Z,99139.55
2019-03-15T09:32:45.603Z,99132.38
2019-03-15T09:35:13.420Z,99133.63
2019-03-15T09:37:41.204Z,99127.45
2019-03-15T09:40:09.465Z,99139.08
2019-03-15T09:42:37.253Z,99127.34
2019-03-15T09:45:05.466Z,99123.00
2019-03-15T09:47:33.249Z,99121.36
2019-03-15T09:50:01.096Z,99133.39
2019-03-15T09:52:28.852Z,99115.38
2019-03-15T09:54:56.681Z,99115.59
2019-03-15T09:57:24.517Z,99114.38
2019-03-15T09:59:53.041Z,99116.05
2019-03-15T10:02:30.267Z,99119.22
2019-03-15T10:04:53.771Z,99119.02
2019-03-15T10:07:37.144Z,99105.22
2019-03-15T10:09:52.321Z,99103.11
2019-03-15T10:12:20.755Z,99096.91
2019-03-15T10:14:51.173Z,99103.19
2019-03-15T10:17:23.074Z,99087.45
2019-03-15T10:19:51.819Z,99105.38
2019-03-15T10:22:20.069Z,99093.43
2019-03-15T10:24:47.875Z,99107.44
2019-03-15T10:27:15.736Z,99108.42
2019-03-15T10:29:43.533Z,99101.47
2019-03-15T10:32:11.393Z,99104.14
2019-03-15T10:34:39.268Z,99108.51
2019-03-15T10:37:07.274Z,99111.10
2019-03-15T10:39:35.077Z,99111.43
2019-03-15T10:42:02.917Z,99103.76
2019-03-15T10:44:30.779Z,99096.95
2019-03-15T10:46:58.599Z,99094.43
2019-03-15T10:49:26.439Z,99102.69
2019-03-15T10:51:54.279Z,99097.70
2019-03-15T10:54:22.098Z,99086.77
2019-03-15T10:56:49.904Z,99085.24
2019-03-15T10:59:18.018Z,99087.85
2019-03-15T11:01:45.828Z,99083.86
2019-03-15T11:04:13.725Z,99078.16
2019-03-15T11:06:41.647Z,99072.30
2019-03-15T11:09:09.491Z,99065.48
2019-03-15T11:11:37.310Z,99066.05
2019-03-15T11:14:06.533Z,99066.41
2019-03-15T11:16:34.364Z,99064.45
2019-03-15T11:19:02.165Z,99061.28
2019-03-15T11:21:30.068Z,99064.47
2019-03-15T11:23:57.859Z,99055.86
2019-03-15T11:26:25.634Z,99047.92
2019-03-15T11:28:53.585Z,99052.30
2019-03-15T11:31:22.920Z,99048.30
2019-03-15T11:33:50.715Z,99038.86
2019-03-15T11:36:18.752Z,99044.37
2019-03-15T11:38:46.542Z,99047.32
2019-03-15T11:41:14.437Z,99032.07
2019-03-15T11:43:42.546Z,99034.69
2019-03-15T11:46:10.650Z,99034.42
2019-03-15T11:48:38.393Z,99029.34
2019-03-15T11:51:06.221Z,99018.70
2019-03-15T11:53:34.055Z,99010.92
2019-03-15T11:56:01.823Z,99007.59
2019-03-15T11:58:29.686Z,99012.37
2019-03-15T12:00:57.470Z,99006.08
2019-03-15T12:03:25.353Z,99007.17
2019-03-15T12:05:53.238Z,99012.29
2019-03-15T12:08:20.977Z,99008.84
2019-03-15T12:10:49.524Z,99005.63
2019-03-15T12:13:18.722Z,98992.41
2019-03-15T12:15:46.544Z,98990.09
2019-03-15T12:18:14.330Z,98973.30
2019-03-15T12:20:42.085Z,98965.16
2019-03-15T12:23:09.906Z,98961.28
2019-03-15T12:25:37.992Z,98958.56
2019-03-15T12:28:05.806Z,98959.17
2019-03-15T12:30:34.028Z,98944.95
2019-03-15T12:33:01.977Z,98943.08
2019-03-15T12:35:29.846Z,98937.02
2019-03-15T12:37:57.664Z,98943.37
2019-03-15T12:40:25.510Z,98940.61
2019-03-15T12:42:53.331Z,98928.92
2019-03-15T12:45:21.126Z,98919.87
2019-03-15T12:47:48.943Z,98909.09
2019-03-15T12:50:16.736Z,98904.91
2019-03-15T12:52:48.754Z,98891.22
2019-03-15T12:55:14.201Z,98886.06
2019-03-15T12:57:42.021Z,98885.58
2019-03-15T13:00:11.809Z,98889.11
2019-03-15T13:02:39.609Z,98880.77
2019-03-15T13:05:07.691Z,98870.70
2019-03-15T13:07:35.482Z,98875.53
2019-03-15T13:10:06.442Z,98866.61
2019-03-15T13:12:34.228Z,98861.03
2019-03-15T13:15:02.496Z,98845.54
2019-03-15T13:17:30.346Z,98827.44
2019-03-15T13:19:58.177Z,98826.70
2019-03-15T13:22:25.981Z,98830.86
2019-03-15T13:24:53.852Z,98824.76
2019-03-15T13:27:21.917Z,98821.34
2019-03-15T13:29:49.749Z,98817.41
2019-03-15T13:32:17.491Z,98820.34
2019-03-15T13:34:45.291Z,98802.17
2019-03-15T13:37:13.065Z,98800.84
2019-03-15T13:39:41.227Z,98807.54
2019-03-15T13:42:09.301Z,98811.44
2019-03-15T13:44:38.470Z,98803.36
2019-03-15T13:47:06.268Z,98810.03
2019-03-15T13:49:34.160Z,98802.11
2019-03-15T13:52:01.971Z,98802.94
2019-03-15T13:54:30.187Z,98803.58
2019-03-15T13:56:57.995Z,98804.86
2019-03-15T13:59:25.809Z,98798.95
2019-03-15T14:01:53.587Z,98803.36
2019-03-15T14:04:21.375Z,98797.82
2019-03-15T14:06:49.170Z,98798.97
2019-03-15T14:09:17.003Z,98790.12
2019-03-15T14:11:45.675Z,98792.03
2019-03-15T14:14:14.502Z,98790.95
2019-03-15T14:16:42.538Z,98781.13
2019-03-15T14:19:10.607Z,98777.84
2019-03-15T14:21:38.391Z,98768.45
2019-03-15T14:24:06.178Z,98759.42
2019-03-15T14:26:33.989Z,98760.77
2019-03-15T14:29:01.780Z,98751.91
2019-03-15T14:31:29.574Z,98761.67
2019-03-15T14:33:57.320Z,98765.23
2019-03-15T14:36:25.097Z,98768.83
2019-03-15T14:38:52.957Z,98766.58
2019-03-15T14:41:21.014Z,98767.78
2019-03-15T14:43:49.170Z,98769.66
2019-03-15T14:46:17.033Z,98767.36
2019-03-15T14:48:44.812Z,98769.27
2019-03-15T14:51:12.628Z,98761.18
2019-03-15T14:53:40.377Z,98751.74
2019-03-15T14:56:08.144Z,98740.98
2019-03-15T14:58:35.911Z,98734.36
2019-03-15T15:01:03.700Z,98736.88
2019-03-15T15:03:31.525Z,98728.51
2019-03-15T15:05:59.318Z,98731.55
2019-03-15T15:08:27.164Z,98727.19
2019-03-15T15:10:54.917Z,98732.34
2019-03-15T15:13:22.700Z,98725.84
2019-03-15T15:15:50.478Z,98708.87
2019-03-15T15:18:18.244Z,98708.84
2019-03-15T15:20:46.012Z,98711.81
2019-03-15T15:23:13.749Z,98698.31
2019-03-15T15:25:41.584Z,98694.84
2019-03-15T15:28:09.356Z,98698.08
2019-03-15T15:30:37.153Z,98694.27
2019-03-15T15:33:04.961Z,98696.42
2019-03-15T15:35:32.735Z,98689.37
2019-03-15T15:38:02.041Z,98691.55
2019-03-15T15:40:29.882Z,98683.74
2019-03-15T15:42:57.695Z,98681.08
2019-03-15T15:45:25.462Z,98681.05
2019-03-15T15:47:53.284Z,98669.19
2019-03-15T15:50:21.041Z,98673.24
2019-03-15T15:52:48.847Z,98675.95
2019-03-15T15:55:16.626Z,98664.09
2019-03-15T15:57:44.425Z,98663.54
2019-03-15T16:00:12.335Z,98662.46
2019-03-15T16:02:40.129Z,98657.02
2019-03-15T16:05:08.878Z,98651.66
2019-03-15T16:07:36.773Z,98643.31
2019-03-15T16:10:05.678Z,98636.81
2019-03-15T16:12:33.430Z,98644.91
2019-03-15T16:15:01.169Z,98639.23
2019-03-15T16:17:28.945Z,98631.66
2019-03-15T16:19:56.749Z,98631.70
2019-03-15T16:22:24.591Z,98604.67
2019-03-15T16:24:52.387Z,98626.25
2019-03-15T16:27:20.161Z,98617.09
2019-03-15T16:29:47.941Z,98613.30
2019-03-15T16:32:15.667Z,98603.34
2019-03-15T16:34:43.468Z,98601.73
2019-03-15T16:37:11.235Z,98591.22
2019-03-15T16:39:40.423Z,98588.27
2019-03-15T16:42:08.222Z,98587.70
2019-03-15T16:44:36.072Z,98591.49
2019-03-15T16:47:03.813Z,98584.20
2019-03-15T16:49:31.610Z,98573.69
2019-03-15T16:51:59.382Z,98570.98
2019-03-15T16:54:28.283Z,98567.23
2019-03-15T16:56:56.138Z,98567.76
2019-03-15T16:59:24.010Z,98544.53
2019-03-15T17:01:54.328Z,98554.53
2019-03-15T17:04:21.646Z,98561.28
2019-03-15T17:06:49.442Z,98562.09
2019-03-15T17:09:17.308Z,98559.11
2019-03-15T17:11:45.163Z,98566.40
2019-03-15T17:14:25.041Z,98559.94
2019-03-15T17:16:42.617Z,98574.52
2019-03-15T17:19:10.429Z,98597.20
2019-03-15T17:21:38.278Z,98583.16
2019-03-15T17:24:06.525Z,98597.73
2019-03-15T17:26:34.404Z,98615.02
2019-03-15T17:29:04.018Z,98652.28
2019-03-15T17:31:31.771Z,98704.66
2019-03-15T17:33:59.549Z,98713.98
2019-03-15T17:36:27.458Z,98716.45
2019-03-15T17:38:55.254Z,98710.84
2019-03-15T17:41:23.045Z,98713.05
2019-03-15T17:43:50.810Z,98691.45
2019-03-15T17:46:18.624Z,98694.12
2019-03-15T17:48:46.373Z,98691.11
2019-03-15T17:51:14.212Z,98706.92
2019-03-15T17:53:42.005Z,98705.37
2019-03-15T17:56:09.914Z,98712.98
2019-03-15T17:58:37.735Z,98727.04
2019-03-15T18:01:05.504Z,98723.56
2019-03-15T18:03:33.255Z,98726.95
2019-03-15T18:06:01.145Z,98722.28
2019-03-15T18:08:28.897Z,98729.59
2019-03-15T18:10:56.673Z,98733.31
2019-03-15T18:13:24.500Z,98732.89
2019-03-15T18:15:54.608Z,98758.03
2019-03-15T18:18:22.983Z,98770.51
2019-03-15T18:20:50.761Z,98742.72
2019-03-15T18:23:18.586Z,98747.69
2019-03-15T18:25:46.666Z,98761.66
2019-03-15T18:28:14.463Z,98752.59
2019-03-15T18:30:42.229Z,98740.02
2019-03-15T18:33:10.084Z,98729.95
2019-03-15T18:35:37.857Z,98731.43
2019-03-15T18:38:05.688Z,98725.73
2019-03-15T18:40:33.475Z,98729.05
2019-03-15T18:43:01.280Z,98732.08
2019-03-15T18:45:29.125Z,98731.05
2019-03-15T18:47:59.827Z,98733.36
2019-03-15T18:50:27.660Z,98743.66
2019-03-15T18:52:55.605Z,98744.86
2019-03-15T18:55:23.368Z,98745.93
2019-03-15T18:57:51.304Z,98749.77
2019-03-15T19:00:19.073Z,98761.38
2019-03-15T19:02:47.009Z,98767.41
2019-03-15T19:05:16.610Z,98761.50
2019-03-15T19:07:44.411Z,98751.06
2019-03-15T19:10:13.478Z,98764.84
2019-03-15T19:12:41.335Z,98769.67
2019-03-15T19:15:10.923Z,98773.36
2019-03-15T19:17:38.742Z,98786.83
2019-03-15T19:20:07.008Z,98790.66
2019-03-15T19:22:37.726Z,98801.86
2019-03-15T19:25:06.172Z,98823.45
2019-03-15T19:27:33.984Z,98810.56
2019-03-15T19:30:05.214Z,98827.97
2019-03-15T19:32:33.794Z,98830.56
2019-03-15T19:35:01.588Z,98834.91
2019-03-15T19:37:29.400Z,98831.48
2019-03-15T19:39:57.415Z,98840.61
2019-03-15T19:42:25.253Z,98850.22
2019-03-15T19:44:53.113Z,98839.65
2019-03-15T19:47:20.889Z,98843.63
2019-03-15T19:49:48.809Z,98844.02
2019-03-15T19:52:16.766Z,98850.73
2019-03-15T19:54:44.579Z,98864.52
2019-03-15T19:57:12.389Z,98866.90
2019-03-15T19:59:42.265Z,98857.51
2019-03-15T20:02:10.115Z,98860.36
2019-03-15T20:04:38.168Z,98868.42
2019-03-15T20:07:06.056Z,98867.28
2019-03-15T20:09:33.903Z,98872.41
2019-03-15T20:12:01.707Z,98875.86
2019-03-15T20:14:29.594Z,98875.93
2019-03-15T20:16:57.421Z,98889.46
2019-03-15T20:19:25.279Z,98882.91
2019-03-15T20:21:53.123Z,98890.34
2019-03-15T20:24:20.989Z,98898.00
2019-03-15T20:26:48.736Z,98898.30
2019-03-15T20:29:17.434Z,98903.64
2019-03-15T20:31:45.403Z,98909.67
2019-03-15T20:34:13.268Z,98913.22
2019-03-15T20:36:41.161Z,98910.55
2019-03-15T20:39:09.044Z,98922.36
2019-03-15T20:41:36.847Z,98922.95
2019-03-15T20:44:06.726Z,98938.62
2019-03-15T20:46:36.275Z,98925.26
2019-03-15T20:49:04.144Z,98935.00
2019-03-15T20:51:32.003Z,98949.16
2019-03-15T20:53:59.868Z,98946.47
2019-03-15T20:56:27.633Z,98962.20
2019-03-15T20:58:55.400Z,98970.13
2019-03-15T21:01:25.064Z,98963.38
2019-03-15T21:03:56.308Z,98972.37
2019-03-15T21:06:23.506Z,98979.63
2019-03-15T21:08:52.087Z,98982.48
2019-03-15T21:11:20.272Z,98993.88
2019-03-15T21:13:48.064Z,98986.57
2019-03-15T21:16:18.377Z,98977.98
2019-03-15T21:18:46.732Z,98990.46
2019-03-15T21:21:14.944Z,98994.66
2019-03-15T21:23:42.783Z,99004.99
2019-03-15T21:26:10.584Z,99018.67
2019-03-15T21:28:38.345Z,99014.42
2019-03-15T21:31:08.468Z,99007.52
2019-03-15T21:33:36.448Z,99024.61
2019-03-15T21:36:04.328Z,99031.02
2019-03-15T21:38:32.123Z,99038.05
2019-03-15T21:41:00.243Z,99034.34
2019-03-15T21:43:28.038Z,99029.22
2019-03-15T21:45:56.056Z,99046.38
2019-03-15T21:48:26.581Z,99050.13
2019-03-15T21:50:54.350Z,99036.05
2019-03-15T21:53:22.389Z,99049.06
2019-03-15T21:55:50.440Z,99041.14
2019-03-15T21:58:18.258Z,99049.72
2019-03-15T22:00:46.047Z,99053.89
2019-03-15T22:03:13.801Z,99064.36
2019-03-15T22:05:41.593Z,99069.22
2019-03-15T22:08:09.381Z,99073.20
2019-03-15T22:10:37.423Z,99085.19
2019-03-15T22:13:05.391Z,99091.86
2019-03-15T22:15:33.161Z,99101.95
2019-03-15T22:18:00.912Z,99102.44
2019-03-15T22:20:28.683Z,99115.80
2019-03-15T22:22:56.470Z,99125.76
2019-03-15T22:25:24.252Z,99125.77
2019-03-15T22:27:52.036Z,99136.39
2019-03-15T22:30:19.800Z,99133.13
2019-03-15T22:32:47.620Z,99145.33
2019-03-15T22:35:15.359Z,99144.33
2019-03-15T22:37:43.103Z,99152.55
2019-03-15T22:40:10.992Z,99161.69
2019-03-15T22:42:38.776Z,99164.55
2019-03-15T22:45:06.616Z,99168.64
2019-03-15T22:47:34.404Z,99161.27
2019-03-15T22:50:02.190Z,99168.48
2019-03-15T22:52:29.944Z,99184.27
2019-03-15T22:54:58.058Z,99182.43
2019-03-15T22:57:25.798Z,99172.66
2019-03-15T22:59:53.566Z,99180.16
2019-03-15T23:02:21.342Z,99186.64
2019-03-15T23:04:49.154Z,99187.25
2019-03-15T23:07:16.934Z,99192.73
2019-03-15T23:09:44.716Z,99193.13
2019-03-15T23:12:12.452Z,99185.22
2019-03-15T23:14:40.214Z,99179.75
2019-03-15T23:17:07.995Z,99183.88
2019-03-15T23:19:35.756Z,99190.07
2019-03-15T23:22:03.516Z,99204.18
2019-03-15T23:24:31.311Z,99207.91
2019-03-15T23:26:59.049Z,99214.81
2019-03-15T23:29:26.818Z,99223.53
2019-03-15T23:31:54.575Z,99223.53
2019-03-15T23:34:22.364Z,99231.80
2019-03-15T23:36:50.165Z,99233.97
2019-03-15T23:39:17.956Z,99228.76
2019-03-15T23:41:45.719Z,99228.22
2019-03-15T23:44:13.521Z,99224.80
2019-03-15T23:46:41.343Z,99224.56
2019-03-15T23:49:09.321Z,99234.64
2019-03-15T23:51:37.089Z,99251.91
2019-03-15T23:54:04.955Z,99251.63
2019-03-15T23:56:32.737Z,99253.11
2019-03-15T23:59:00.505Z,99264.41
